Time;durP1;ratioP1;P1;durP2;ratioP2;P2;SDS_P1;SDS_P2;PMS_P1;PMS_P2;Temp;Humidity;BMP_temperature;BMP_pressure;BME280_temperature;BME280_humidity;BME280_pressure;Samples;Min_cycle;Max_cycle;Signal;HPM_P1;HPM_P2
2023/01/02 00:00:59;;;;;;;9.63;6.30;;;9.50;66.00;;;;;;6032110;23;115326;-83
2023/01/02 00:03:30;;;;;;;8.88;6.38;;;9.50;66.00;;;;;;6061856;23;114830;-84
2023/01/02 00:05:57;;;;;;;6.85;5.53;;;9.50;66.00;;;;;;6055577;23;114067;-83
2023/01/02 00:08:24;;;;;;;9.07;5.97;;;9.40;66.00;;;;;;6017033;23;114434;-84
2023/01/02 00:10:52;;;;;;;8.98;6.10;;;9.50;66.10;;;;;;6082375;23;115202;-83
2023/01/02 00:13:19;;;;;;;10.55;5.80;;;9.50;66.20;;;;;;6056261;23;116080;-84
2023/01/02 00:15:46;;;;;;;9.25;5.03;;;9.40;66.20;;;;;;6057357;23;114525;-84
2023/01/02 00:18:14;;;;;;;8.05;5.90;;;9.40;66.20;;;;;;6058241;23;114312;-84
2023/01/02 00:20:41;;;;;;;9.38;6.07;;;9.40;66.20;;;;;;6008400;23;115156;-84
2023/01/02 00:23:08;;;;;;;8.27;5.85;;;9.40;66.30;;;;;;6082783;23;114873;-85
2023/01/02 00:25:36;;;;;;;8.88;5.82;;;9.40;66.30;;;;;;6033143;23;114599;-84
2023/01/02 00:28:03;;;;;;;7.82;5.47;;;9.40;66.40;;;;;;6083516;23;114779;-86
2023/01/02 00:30:30;;;;;;;7.75;5.35;;;9.40;66.40;;;;;;6081437;23;114993;-84
2023/01/02 00:33:05;;;;;;;9.33;5.13;;;9.30;66.60;;;;;;6081850;23;115783;-83
2023/01/02 00:35:33;;;;;;;8.82;5.60;;;9.30;66.70;;;;;;6056939;23;114306;-84
2023/01/02 00:38:00;;;;;;;10.07;6.18;;;9.30;66.80;;;;;;6057266;23;114325;-85
2023/01/02 00:40:27;;;;;;;8.60;5.90;;;9.20;66.80;;;;;;6056010;23;115101;-84
2023/01/02 00:42:55;;;;;;;8.43;5.85;;;9.20;66.90;;;;;;6056281;23;114595;-85
2023/01/02 00:45:22;;;;;;;8.07;5.97;;;9.20;67.00;;;;;;6083283;23;114294;-84
2023/01/02 00:47:50;;;;;;;9.02;6.85;;;9.20;67.10;;;;;;6034090;23;114272;-85
2023/01/02 00:50:17;;;;;;;10.38;6.30;;;9.20;67.20;;;;;;6056389;23;115113;-84
2023/01/02 00:52:44;;;;;;;10.40;6.32;;;9.20;67.30;;;;;;6031961;23;114655;-84
2023/01/02 00:55:11;;;;;;;8.73;5.85;;;9.20;67.40;;;;;;6056665;23;114389;-84
2023/01/02 00:57:39;;;;;;;8.70;5.97;;;9.20;67.50;;;;;;6057241;23;114345;-84
2023/01/02 01:00:07;;;;;;;8.25;5.70;;;9.10;67.50;;;;;;6031883;23;115580;-83
2023/01/02 01:02:34;;;;;;;9.35;6.20;;;9.10;67.60;;;;;;6081857;23;114473;-84
2023/01/02 01:05:01;;;;;;;8.55;5.70;;;9.10;67.60;;;;;;6057166;23;114277;-83
2023/01/02 01:07:29;;;;;;;9.02;5.80;;;9.10;67.70;;;;;;6082968;23;114325;-83
2023/01/02 01:09:56;;;;;;;7.82;5.60;;;9.00;67.80;;;;;;6083232;23;115115;-83
2023/01/02 01:12:23;;;;;;;9.55;6.15;;;9.00;67.80;;;;;;6082090;23;115755;-84
2023/01/02 01:14:50;;;;;;;7.28;5.28;;;9.10;67.80;;;;;;6057068;23;114330;-83
2023/01/02 01:17:18;;;;;;;8.20;5.43;;;9.10;67.80;;;;;;6082961;23;114643;-83
2023/01/02 01:19:47;;;;;;;8.85;6.07;;;9.10;67.80;;;;;;6055403;23;114457;-82
2023/01/02 01:22:14;;;;;;;8.30;5.82;;;9.00;67.90;;;;;;6031793;23;114919;-83
2023/01/02 01:24:42;;;;;;;9.50;5.63;;;9.10;67.90;;;;;;6083005;23;114789;-85
2023/01/02 01:27:09;;;;;;;8.07;5.05;;;9.10;67.90;;;;;;6057152;23;114388;-83
2023/01/02 01:29:36;;;;;;;8.43;5.10;;;9.10;67.90;;;;;;6056041;23;115539;-83
2023/01/02 01:32:04;;;;;;;7.60;5.32;;;9.10;67.90;;;;;;6056191;23;114578;-83
2023/01/02 01:34:31;;;;;;;6.93;4.75;;;9.20;67.80;;;;;;6082353;23;114240;-84
2023/01/02 01:36:58;;;;;;;7.13;4.57;;;9.20;67.80;;;;;;6056848;23;114473;-84
2023/01/02 01:39:25;;;;;;;8.25;4.90;;;9.20;67.80;;;;;;6081364;23;114987;-84
2023/01/02 01:41:54;;;;;;;7.03;4.75;;;9.20;67.70;;;;;;6082832;23;114587;-84
2023/01/02 01:44:50;;;;;;;7.85;5.32;;;9.20;67.70;;;;;;6007312;23;114456;-82
2023/01/02 01:47:39;;;;;;;6.18;4.65;;;9.20;67.60;;;;;;6056309;23;114402;-84
2023/01/02 01:50:33;;;;;;;7.82;4.63;;;9.20;67.60;;;;;;6059681;23;115305;-83
2023/01/02 01:53:13;;;;;;;8.23;4.50;;;9.20;67.60;;;;;;6023458;23;114341;-84
2023/01/02 01:55:55;;;;;;;7.43;4.93;;;9.20;67.70;;;;;;6102852;23;114270;-84
2023/01/02 01:58:44;;;;;;;7.18;4.60;;;9.20;67.70;;;;;;6035387;23;114457;-84
2023/01/02 02:01:13;;;;;;;7.07;4.55;;;9.20;67.70;;;;;;6081441;23;115522;-83
2023/01/02 02:03:43;;;;;;;7.53;4.50;;;9.20;67.60;;;;;;6032579;23;115161;-84
2023/01/02 02:06:10;;;;;;;7.05;4.20;;;9.20;67.60;;;;;;6057724;23;114178;-84
2023/01/02 02:08:53;;;;;;;9.02;4.95;;;9.20;67.60;;;;;;6032462;23;114907;-84
2023/01/02 02:11:20;;;;;;;7.55;4.18;;;9.20;67.60;;;;;;6031545;23;115657;-83
2023/01/02 02:13:48;;;;;;;8.18;4.70;;;9.20;67.50;;;;;;6031761;23;114679;-84
2023/01/02 02:16:15;;;;;;;6.65;4.70;;;9.20;67.50;;;;;;6033577;23;114794;-84
2023/01/02 02:19:11;;;;;;;8.30;4.63;;;9.20;67.50;;;;;;6082951;23;114341;-84
2023/01/02 02:21:53;;;;;;;7.20;4.72;;;9.30;67.40;;;;;;6034630;23;115108;-84
2023/01/02 02:24:47;;;;;;;7.55;4.65;;;9.20;67.50;;;;;;6055687;23;114679;-84
2023/01/02 02:27:45;;;;;;;6.57;4.53;;;9.20;67.40;;;;;;6056241;23;114844;-82
2023/01/02 02:30:56;;;;;;;7.78;4.57;;;9.20;67.40;;;;;;6082960;23;114586;-82
2023/01/02 02:33:38;;;;;;;6.00;4.20;;;9.20;67.30;;;;;;6014690;23;116020;-83
2023/01/02 02:36:40;;;;;;;8.07;4.28;;;9.20;67.60;;;;;;6048657;23;114672;-83
2023/01/02 02:39:32;;;;;;;6.82;4.35;;;9.20;67.60;;;;;;6062204;23;114194;-83
2023/01/02 02:42:27;;;;;;;6.93;4.30;;;9.20;67.60;;;;;;6112031;23;114737;-83
2023/01/02 02:45:33;;;;;;;6.40;4.28;;;9.20;67.70;;;;;;6055541;23;115426;-84
2023/01/02 02:48:01;;;;;;;5.68;4.45;;;9.20;67.50;;;;;;6106934;23;114636;-84
2023/01/02 02:50:46;;;;;;;8.18;4.78;;;9.10;67.70;;;;;;6061310;23;114643;-83
2023/01/02 02:53:21;;;;;;;8.02;4.30;;;9.20;67.80;;;;;;6086231;23;114517;-84
2023/01/02 02:55:51;;;;;;;7.38;4.05;;;9.20;67.80;;;;;;6061761;23;115074;-82
2023/01/02 02:58:19;;;;;;;6.38;4.18;;;9.20;67.80;;;;;;6086351;23;114999;-83
2023/01/02 03:00:46;;;;;;;5.82;3.95;;;9.20;67.70;;;;;;6039265;23;114465;-83
2023/01/02 03:03:20;;;;;;;6.00;4.05;;;9.20;67.80;;;;;;6087265;23;114382;-83
2023/01/02 03:06:22;;;;;;;6.85;4.18;;;9.20;67.70;;;;;;6061213;23;115164;-83
2023/01/02 03:09:13;;;;;;;9.15;5.03;;;9.20;67.70;;;;;;6085915;23;114675;-83
2023/01/02 03:12:21;;;;;;;6.05;4.10;;;9.20;67.80;;;;;;6067077;23;114472;-84
2023/01/02 03:15:05;;;;;;;6.93;4.68;;;9.20;67.80;;;;;;6040599;23;114603;-83
2023/01/02 03:17:59;;;;;;;7.03;4.25;;;9.20;68.00;;;;;;6086100;23;115145;-82
2023/01/02 03:20:31;;;;;;;5.90;4.13;;;9.20;67.90;;;;;;6085428;23;114873;-83
2023/01/02 03:23:00;;;;;;;7.28;4.60;;;9.20;68.10;;;;;;6063591;23;114184;-83
2023/01/02 03:25:28;;;;;;;7.15;4.90;;;9.20;68.10;;;;;;6063525;23;114617;-84
2023/01/02 03:27:55;;;;;;;7.72;4.00;;;9.20;68.10;;;;;;6086136;23;115771;-83
2023/01/02 03:30:23;;;;;;;6.15;4.22;;;9.20;68.10;;;;;;6037580;23;114877;-84
2023/01/02 03:32:57;;;;;;;7.57;4.28;;;9.20;68.10;;;;;;6087534;23;114649;-83
2023/01/02 03:35:33;;;;;;;7.18;4.35;;;9.20;68.10;;;;;;6087943;23;114352;-85
2023/01/02 03:38:01;;;;;;;6.53;4.28;;;9.20;68.20;;;;;;6057237;23;115155;-83
2023/01/02 03:41:05;;;;;;;7.03;4.60;;;9.20;68.20;;;;;;6088815;23;114590;-84
2023/01/02 03:43:32;;;;;;;6.55;4.28;;;9.20;68.10;;;;;;6104388;23;114587;-85
2023/01/02 03:46:32;;;;;;;6.40;4.25;;;9.20;68.40;;;;;;6059070;23;114507;-85
2023/01/02 03:49:29;;;;;;;5.85;4.40;;;9.20;68.60;;;;;;6082997;23;115321;-85
2023/01/02 03:51:56;;;;;;;7.00;4.88;;;9.20;68.60;;;;;;6062807;23;114578;-85
2023/01/02 03:54:23;;;;;;;6.95;4.70;;;9.20;68.60;;;;;;6034540;23;114605;-84
2023/01/02 03:57:02;;;;;;;9.10;4.72;;;9.20;68.70;;;;;;6082948;23;114853;-85
2023/01/02 03:59:48;;;;;;;6.60;4.30;;;9.20;68.90;;;;;;6081427;23;115973;-84
2023/01/02 04:02:43;;;;;;;6.32;4.50;;;9.20;68.80;;;;;;6082328;23;114803;-85
2023/01/02 04:05:31;;;;;;;6.45;4.22;;;9.20;68.90;;;;;;6083000;23;114376;-84
2023/01/02 04:08:23;;;;;;;6.35;4.82;;;9.20;69.00;;;;;;6062294;23;114545;-84
2023/01/02 04:10:51;;;;;;;6.75;4.30;;;9.20;69.00;;;;;;6105567;23;116012;-85
2023/01/02 04:13:33;;;;;;;6.13;4.40;;;9.20;69.00;;;;;;6035969;23;114533;-84
2023/01/02 04:16:01;;;;;;;7.22;4.88;;;9.20;69.10;;;;;;6035978;23;114410;-84
2023/01/02 04:18:39;;;;;;;7.03;5.28;;;9.20;69.10;;;;;;6058960;23;114360;-85
2023/01/02 04:21:18;;;;;;;7.55;4.60;;;9.20;69.20;;;;;;6036649;23;115691;-85
2023/01/02 04:23:49;;;;;;;8.50;5.10;;;9.20;69.10;;;;;;6032878;23;116197;-85
2023/01/02 04:26:28;;;;;;;8.93;4.45;;;9.20;69.10;;;;;;6034661;23;114606;-85
2023/01/02 04:28:55;;;;;;;7.47;4.55;;;9.20;69.20;;;;;;6035486;23;115567;-85
2023/01/02 04:31:53;;;;;;;7.07;4.80;;;9.20;69.20;;;;;;6032807;23;115083;-85
2023/01/02 04:34:21;;;;;;;7.43;4.82;;;9.20;69.10;;;;;;6048411;23;115295;-84
2023/01/02 04:36:48;;;;;;;7.10;4.78;;;9.20;69.20;;;;;;6033948;23;114386;-84
2023/01/02 04:39:18;;;;;;;7.72;4.43;;;9.20;69.20;;;;;;6034090;23;114736;-85
2023/01/02 04:41:45;;;;;;;7.13;4.90;;;9.20;69.20;;;;;;6008794;23;117881;-86
2023/01/02 04:44:13;;;;;;;7.13;4.82;;;9.20;69.20;;;;;;6078883;23;114579;-85
2023/01/02 04:46:41;;;;;;;6.82;4.95;;;9.20;69.10;;;;;;6089520;23;114260;-85
2023/01/02 04:49:09;;;;;;;7.20;4.63;;;9.20;69.20;;;;;;6084541;23;114286;-84
2023/01/02 04:51:36;;;;;;;7.28;4.65;;;9.20;69.30;;;;;;6080810;23;115010;-84
2023/01/02 04:54:03;;;;;;;7.32;4.85;;;9.20;69.30;;;;;;6056671;23;114640;-84
2023/01/02 04:56:31;;;;;;;8.18;5.20;;;9.20;69.20;;;;;;6057937;23;114318;-85
2023/01/02 04:58:58;;;;;;;8.20;4.60;;;9.20;69.20;;;;;;6082440;23;114500;-85
2023/01/02 05:01:25;;;;;;;8.55;4.88;;;9.20;69.30;;;;;;6083527;23;115025;-84
2023/01/02 05:03:54;;;;;;;7.25;4.80;;;9.20;69.20;;;;;;6083868;23;115698;-84
2023/01/02 05:06:21;;;;;;;6.80;4.72;;;9.20;69.30;;;;;;6084548;23;114347;-85
2023/01/02 05:08:49;;;;;;;6.93;4.68;;;9.20;69.40;;;;;;6084705;23;114662;-85
2023/01/02 05:11:18;;;;;;;6.07;4.78;;;9.30;69.30;;;;;;6057731;23;116089;-84
2023/01/02 05:13:45;;;;;;;6.45;4.13;;;9.20;69.30;;;;;;6057723;23;114609;-84
2023/01/02 05:16:12;;;;;;;8.15;4.70;;;9.20;69.40;;;;;;6083289;23;114622;-84
2023/01/02 05:18:40;;;;;;;8.75;4.68;;;9.20;69.40;;;;;;6083956;23;114336;-85
2023/01/02 05:23:57;;;;;;;7.05;4.22;;;9.20;69.30;;;;;;6041028;23;115108;-84
2023/01/02 05:26:56;;;;;;;5.85;4.28;;;9.20;69.40;;;;;;6083400;23;114725;-84
2023/01/02 05:29:24;;;;;;;6.82;4.63;;;9.20;69.30;;;;;;6093072;23;114333;-84
2023/01/02 05:31:51;;;;;;;7.05;4.50;;;9.20;69.60;;;;;;6099013;22;114011;-84
2023/01/02 05:34:19;;;;;;;7.20;4.25;;;9.20;69.60;;;;;;6082753;23;114571;-84
2023/01/02 05:36:46;;;;;;;10.93;4.45;;;9.20;69.60;;;;;;6093322;23;114649;-85
2023/01/02 05:39:13;;;;;;;7.57;4.60;;;9.20;69.60;;;;;;6087285;23;114409;-84
2023/01/02 05:41:41;;;;;;;7.25;4.80;;;9.20;69.60;;;;;;6111583;23;115643;-84
2023/01/02 05:44:09;;;;;;;7.30;4.70;;;9.20;69.60;;;;;;6112034;23;114565;-83
2023/01/02 05:46:37;;;;;;;7.18;4.90;;;9.30;69.60;;;;;;6113371;23;114489;-84
2023/01/02 05:49:08;;;;;;;6.18;4.07;;;9.20;69.50;;;;;;6063115;23;114468;-85
2023/01/02 05:51:35;;;;;;;6.82;4.30;;;9.30;69.60;;;;;;6061189;23;115194;-84
2023/01/02 05:54:03;;;;;;;5.93;4.15;;;9.20;69.50;;;;;;6037542;23;116308;-85
2023/01/02 05:56:31;;;;;;;6.75;4.10;;;9.20;69.50;;;;;;6087219;23;114474;-84
2023/01/02 05:58:58;;;;;;;6.00;4.30;;;9.20;69.60;;;;;;6087193;23;114231;-83
2023/01/02 06:01:27;;;;;;;6.65;3.92;;;9.30;69.60;;;;;;6085609;23;115125;-83
2023/01/02 06:03:57;;;;;;;6.95;4.10;;;9.20;69.50;;;;;;6062212;23;115948;-84
2023/01/02 06:06:36;;;;;;;7.20;4.70;;;9.30;69.50;;;;;;6086515;23;114750;-86
2023/01/02 06:09:04;;;;;;;6.80;3.85;;;9.30;69.50;;;;;;6038541;23;114377;-83
2023/01/02 06:11:31;;;;;;;6.25;3.65;;;9.30;69.50;;;;;;6111454;23;115361;-84
2023/01/02 06:13:58;;;;;;;6.40;4.15;;;9.30;69.50;;;;;;6033051;23;114662;-85
2023/01/02 06:16:26;;;;;;;5.65;3.70;;;9.30;69.50;;;;;;6110740;23;115329;-84
2023/01/02 06:18:53;;;;;;;7.70;4.40;;;9.30;69.40;;;;;;6086675;23;114352;-84
2023/01/02 06:21:21;;;;;;;6.97;4.43;;;9.30;69.40;;;;;;6060694;23;115111;-83
2023/01/02 06:23:53;;;;;;;8.55;4.63;;;9.30;69.40;;;;;;6061238;23;115226;-84
2023/01/02 06:26:22;;;;;;;5.40;3.72;;;9.20;69.40;;;;;;6112129;23;114471;-84
2023/01/02 06:28:51;;;;;;;7.90;3.90;;;9.30;69.40;;;;;;6086447;23;114814;-84
2023/01/02 06:31:20;;;;;;;7.55;4.25;;;9.30;69.40;;;;;;6059896;23;116070;-84
2023/01/02 06:33:53;;;;;;;5.95;4.05;;;9.40;69.40;;;;;;6062159;23;114641;-84
2023/01/02 06:36:21;;;;;;;6.88;4.47;;;9.30;69.40;;;;;;6058088;23;114267;-83
2023/01/02 06:38:48;;;;;;;7.22;4.03;;;9.30;69.40;;;;;;6084692;23;114863;-84
2023/01/02 06:41:15;;;;;;;5.38;3.78;;;9.30;69.40;;;;;;6083113;23;115007;-84
2023/01/02 06:43:47;;;;;;;5.88;3.88;;;9.30;69.40;;;;;;6056699;23;115622;-84
2023/01/02 06:46:19;;;;;;;6.88;4.63;;;9.40;69.30;;;;;;6058819;23;114580;-84
2023/01/02 06:48:47;;;;;;;5.68;3.50;;;9.40;69.30;;;;;;6059359;23;114283;-83
2023/01/02 06:51:19;;;;;;;6.90;4.45;;;9.40;69.30;;;;;;6081063;23;115090;-84
2023/01/02 06:53:46;;;;;;;7.78;3.85;;;9.40;69.30;;;;;;6057880;23;114632;-83
2023/01/02 06:56:15;;;;;;;5.95;3.63;;;9.40;69.20;;;;;;6082175;23;114759;-83
2023/01/02 06:58:43;;;;;;;6.95;4.20;;;9.40;69.20;;;;;;6082638;23;115081;-83
2023/01/02 07:01:13;;;;;;;9.25;3.63;;;9.50;69.20;;;;;;6057337;23;115052;-83
2023/01/02 07:03:40;;;;;;;6.93;3.75;;;9.50;69.20;;;;;;6081539;23;114578;-83
2023/01/02 07:06:26;;;;;;;6.28;4.13;;;9.50;69.20;;;;;;6058836;23;114519;-84
2023/01/02 07:08:58;;;;;;;6.70;3.80;;;9.60;69.30;;;;;;6082621;23;114990;-84
2023/01/02 07:11:26;;;;;;;5.90;4.00;;;9.60;69.10;;;;;;6032387;23;117929;-82
2023/01/02 07:13:53;;;;;;;5.97;3.78;;;9.60;69.00;;;;;;6083626;23;115692;-82
2023/01/02 07:16:22;;;;;;;5.30;3.47;;;9.70;68.90;;;;;;6057955;23;115536;-81
2023/01/02 07:18:52;;;;;;;6.55;3.92;;;9.70;68.80;;;;;;6063931;23;115168;-83
2023/01/02 07:21:20;;;;;;;5.80;3.80;;;9.70;68.70;;;;;;6090223;23;115212;-83
2023/01/02 07:23:47;;;;;;;8.68;4.55;;;9.70;68.60;;;;;;6008965;23;114602;-83
2023/01/02 07:26:14;;;;;;;7.97;4.68;;;9.70;68.50;;;;;;6084465;23;114307;-84
2023/01/02 07:28:42;;;;;;;7.10;4.00;;;9.80;68.30;;;;;;6082360;23;114414;-83
2023/01/02 07:31:15;;;;;;;7.15;4.00;;;9.80;68.20;;;;;;6082920;23;115729;-83
2023/01/02 07:33:43;;;;;;;7.45;3.65;;;9.80;68.20;;;;;;6057459;23;114907;-83
2023/01/02 07:36:16;;;;;;;6.63;4.32;;;9.80;68.10;;;;;;6085585;23;114433;-83
2023/01/02 07:38:43;;;;;;;7.10;4.10;;;9.90;68.00;;;;;;6065216;23;115054;-82
2023/01/02 07:41:15;;;;;;;7.68;3.75;;;10.00;67.90;;;;;;6062849;23;114964;-83
2023/01/02 07:43:43;;;;;;;8.10;3.85;;;10.10;67.70;;;;;;6085757;23;114672;-84
2023/01/02 07:46:11;;;;;;;6.20;3.60;;;10.20;67.50;;;;;;6086338;23;114362;-85
2023/01/02 07:48:39;;;;;;;8.20;4.20;;;10.20;67.20;;;;;;6088354;23;114693;-84
2023/01/02 07:51:06;;;;;;;6.03;3.72;;;10.40;66.80;;;;;;6086221;23;115158;-84
2023/01/02 07:53:34;;;;;;;6.00;3.75;;;10.40;66.50;;;;;;6061187;23;117879;-84
2023/01/02 07:56:01;;;;;;;7.63;3.65;;;10.50;66.40;;;;;;6087489;23;114352;-83
2023/01/02 07:58:30;;;;;;;8.82;3.83;;;10.60;66.00;;;;;;6086959;23;114347;-83
2023/01/02 08:00:57;;;;;;;7.00;3.60;;;10.70;65.90;;;;;;6062209;23;115137;-84
2023/01/02 08:03:32;;;;;;;7.15;4.30;;;10.70;65.70;;;;;;6065180;23;115064;-82
2023/01/02 08:06:13;;;;;;;6.72;4.35;;;10.80;65.60;;;;;;6112991;23;114135;-84
2023/01/02 08:08:40;;;;;;;6.57;3.88;;;10.90;65.30;;;;;;6063985;23;114678;-85
2023/01/02 08:11:10;;;;;;;7.90;3.72;;;10.80;65.10;;;;;;6085712;23;115222;-85
2023/01/02 08:13:37;;;;;;;6.70;3.80;;;10.90;65.20;;;;;;6112125;23;115174;-84
2023/01/02 08:16:09;;;;;;;6.78;4.50;;;11.00;64.90;;;;;;6087041;23;114458;-84
2023/01/02 08:18:37;;;;;;;6.30;3.70;;;11.00;65.00;;;;;;6087704;23;115635;-83
2023/01/02 08:21:04;;;;;;;5.65;3.83;;;11.10;64.90;;;;;;6085983;23;115026;-85
2023/01/02 08:23:32;;;;;;;6.38;3.53;;;11.20;64.70;;;;;;6086018;23;114781;-84
2023/01/02 08:26:06;;;;;;;6.20;3.65;;;11.20;64.40;;;;;;6062951;23;114535;-85
2023/01/02 08:28:34;;;;;;;5.60;3.80;;;11.20;64.40;;;;;;6064810;23;114512;-84
2023/01/02 08:31:09;;;;;;;7.95;4.72;;;11.20;64.40;;;;;;6062164;23;115463;-83
2023/01/02 08:33:36;;;;;;;7.82;4.45;;;11.30;64.20;;;;;;6086018;23;116431;-84
2023/01/02 08:36:04;;;;;;;6.68;4.35;;;11.30;64.20;;;;;;6037790;23;114224;-83
2023/01/02 08:38:32;;;;;;;7.68;4.30;;;11.40;64.00;;;;;;6063091;23;114610;-84
2023/01/02 08:40:59;;;;;;;8.23;4.75;;;11.50;63.90;;;;;;6085932;23;115022;-85
2023/01/02 08:43:32;;;;;;;7.25;4.13;;;11.50;63.70;;;;;;6111260;23;115361;-83
2023/01/02 08:46:05;;;;;;;7.93;3.80;;;11.50;63.20;;;;;;6063223;23;114486;-83
2023/01/02 08:48:33;;;;;;;6.35;3.63;;;11.50;63.10;;;;;;6063983;23;114732;-83
2023/01/02 08:51:01;;;;;;;6.55;3.58;;;11.50;63.30;;;;;;6084998;23;116027;-84
2023/01/02 08:53:40;;;;;;;5.63;3.50;;;11.60;63.30;;;;;;6041738;23;114504;-84
2023/01/02 08:56:25;;;;;;;6.07;4.10;;;11.60;63.10;;;;;;6112776;23;114564;-84
2023/01/02 08:58:56;;;;;;;6.72;3.50;;;11.60;62.60;;;;;;6087526;23;114729;-84
2023/01/02 09:01:25;;;;;;;6.07;3.97;;;11.60;62.80;;;;;;6038259;23;118160;-84
2023/01/02 09:03:57;;;;;;;7.25;4.35;;;11.70;62.90;;;;;;6115195;23;114631;-83
2023/01/02 09:06:33;;;;;;;6.97;3.40;;;11.70;62.60;;;;;;6069908;23;114232;-83
2023/01/02 09:09:00;;;;;;;6.15;3.30;;;11.80;62.30;;;;;;6084071;23;114459;-84
2023/01/02 09:11:41;;;;;;;5.90;3.78;;;11.80;62.40;;;;;;6088961;23;115048;-84
2023/01/02 09:14:08;;;;;;;6.55;3.40;;;11.90;62.00;;;;;;6038818;23;118079;-84
2023/01/02 09:16:35;;;;;;;5.22;3.28;;;11.90;61.60;;;;;;6063561;23;114225;-84
2023/01/02 09:19:04;;;;;;;6.10;3.35;;;12.00;61.50;;;;;;6064172;23;114583;-84
2023/01/02 09:21:31;;;;;;;4.95;3.33;;;12.00;61.20;;;;;;6110525;23;115156;-84
2023/01/02 09:24:00;;;;;;;4.72;3.35;;;12.00;61.00;;;;;;6062819;23;114763;-83
2023/01/02 09:26:28;;;;;;;6.20;3.85;;;12.00;61.00;;;;;;6085817;23;114500;-84
2023/01/02 09:28:55;;;;;;;5.03;3.80;;;12.10;61.10;;;;;;6087507;23;114368;-85
2023/01/02 09:31:22;;;;;;;6.38;3.92;;;12.20;61.20;;;;;;6112481;23;115176;-84
2023/01/02 09:33:51;;;;;;;6.88;3.80;;;12.20;61.10;;;;;;6061399;23;117629;-85
2023/01/02 09:36:19;;;;;;;5.70;3.72;;;12.30;61.00;;;;;;6062534;23;114287;-83
2023/01/02 09:38:57;;;;;;;6.40;4.00;;;12.30;60.90;;;;;;6062552;23;114281;-84
2023/01/02 09:41:35;;;;;;;7.40;3.65;;;12.40;60.60;;;;;;6013392;23;118037;-85
2023/01/02 09:44:23;;;;;;;7.32;4.70;;;12.40;60.40;;;;;;6061730;23;116199;-85
2023/01/02 09:47:09;;;;;;;7.40;4.07;;;12.40;60.40;;;;;;6089251;23;115269;-85
2023/01/02 09:49:51;;;;;;;5.95;3.63;;;12.50;60.40;;;;;;6062317;23;114693;-85
2023/01/02 09:52:26;;;;;;;6.15;4.05;;;12.50;59.90;;;;;;6085107;23;115074;-85
2023/01/02 09:54:56;;;;;;;6.72;3.97;;;12.50;59.90;;;;;;6111827;23;114671;-83
2023/01/02 09:57:26;;;;;;;6.20;3.90;;;12.50;59.80;;;;;;6039908;23;114436;-85
2023/01/02 10:00:14;;;;;;;8.82;4.22;;;12.50;59.40;;;;;;6112229;23;114811;-85
2023/01/02 10:03:22;;;;;;;6.28;3.67;;;12.60;59.40;;;;;;6084735;23;115206;-84
2023/01/02 10:06:37;;;;;;;6.78;3.75;;;12.60;59.30;;;;;;6053508;23;117265;-84
2023/01/02 10:09:52;;;;;;;6.57;3.90;;;12.60;59.50;;;;;;5919611;23;114837;-84
2023/01/02 10:12:31;;;;;;;7.82;3.83;;;12.60;59.10;;;;;;5965414;23;114902;-85
2023/01/02 10:15:05;;;;;;;4.90;3.25;;;12.60;59.20;;;;;;6008009;23;118785;-84
2023/01/02 10:17:37;;;;;;;6.65;3.30;;;12.70;58.90;;;;;;6038566;23;116444;-85
2023/01/02 10:20:14;;;;;;;5.70;3.55;;;12.70;58.80;;;;;;6061905;23;114696;-84
2023/01/02 10:22:52;;;;;;;7.20;3.20;;;12.70;58.50;;;;;;6046036;23;114512;-84
2023/01/02 10:25:28;;;;;;;7.03;3.40;;;12.70;58.50;;;;;;6061603;23;115505;-85
2023/01/02 10:28:19;;;;;;;4.50;3.05;;;12.70;58.50;;;;;;6063722;23;116822;-86
2023/01/02 10:30:54;;;;;;;5.47;3.40;;;12.70;58.30;;;;;;6088971;23;114457;-85
2023/01/02 10:33:44;;;;;;;6.93;3.78;;;12.70;58.30;;;;;;6040457;23;114413;-84
2023/01/02 10:36:40;;;;;;;6.30;3.08;;;12.70;58.20;;;;;;6084522;23;116314;-85
2023/01/02 10:39:21;;;;;;;6.45;3.30;;;12.70;58.20;;;;;;6111311;23;114571;-85
2023/01/02 10:41:52;;;;;;;6.72;3.33;;;12.70;58.30;;;;;;6040043;23;114456;-84
2023/01/02 10:44:30;;;;;;;6.50;3.88;;;12.70;58.40;;;;;;6086520;23;114751;-84
2023/01/02 10:46:57;;;;;;;6.43;3.80;;;12.70;58.20;;;;;;6086276;23;115437;-83
2023/01/02 10:49:25;;;;;;;8.23;3.72;;;12.70;58.10;;;;;;6036720;23;114726;-84
2023/01/02 10:52:28;;;;;;;6.68;3.90;;;12.80;58.00;;;;;;6086750;23;114567;-84
2023/01/02 10:54:56;;;;;;;6.05;3.78;;;12.90;58.00;;;;;;6065925;23;114516;-85
2023/01/02 10:57:49;;;;;;;5.88;3.67;;;12.80;58.20;;;;;;6122871;23;114455;-86
2023/01/02 11:00:26;;;;;;;5.35;3.65;;;12.90;58.10;;;;;;6020631;23;114430;-85
2023/01/02 11:03:16;;;;;;;5.13;3.30;;;12.90;58.00;;;;;;6015497;23;114419;-86
2023/01/02 11:05:54;;;;;;;5.88;3.28;;;13.00;57.70;;;;;;6087635;23;114730;-84
2023/01/02 11:08:38;;;;;;;;;;;13.00;57.70;;;;;;6112000;23;115054;-85
2023/01/02 11:11:16;;;;;;;6.85;4.28;;;12.90;57.70;;;;;;6111121;23;114461;-86
2023/01/02 11:13:50;;;;;;;6.72;3.55;;;12.90;57.80;;;;;;6086327;23;114531;-85
2023/01/02 11:16:25;;;;;;;6.15;3.58;;;12.90;57.50;;;;;;6064826;23;114840;-86
2023/01/02 11:18:57;;;;;;;4.85;3.50;;;12.90;57.60;;;;;;6085578;23;116990;-85
2023/01/02 11:21:36;;;;;;;5.43;3.58;;;12.90;57.60;;;;;;6086042;23;114565;-83
2023/01/02 11:24:10;;;;;;;5.75;3.50;;;12.90;57.70;;;;;;6071739;22;116742;-84
2023/01/02 11:26:38;;;;;;;6.38;3.67;;;12.90;57.60;;;;;;6062715;23;115588;-85
2023/01/02 11:29:25;;;;;;;6.53;3.63;;;13.00;57.80;;;;;;6109183;23;115585;-86
2023/01/02 11:31:57;;;;;;;5.95;3.53;;;13.00;57.60;;;;;;6086136;23;114790;-84
2023/01/02 11:34:36;;;;;;;6.60;3.50;;;13.00;57.70;;;;;;6086728;23;115459;-86
2023/01/02 11:37:16;;;;;;;6.40;3.10;;;13.10;57.40;;;;;;6111875;23;114597;-86
2023/01/02 11:40:00;;;;;;;4.40;3.20;;;13.10;57.30;;;;;;6060367;23;118351;-84
2023/01/02 11:45:45;;;;;;;7.95;5.80;;;13.00;57.50;;;;;;6110566;23;114562;-85
2023/01/02 11:48:19;;;;;;;6.40;3.60;;;12.90;57.90;;;;;;6085680;23;114539;-85
2023/01/02 11:50:47;;;;;;;6.57;3.90;;;13.00;57.90;;;;;;6086034;23;115079;-86
2023/01/02 11:53:26;;;;;;;6.22;4.18;;;13.00;57.60;;;;;;6109355;23;114669;-86
2023/01/02 11:56:09;;;;;;;5.63;3.67;;;13.00;57.50;;;;;;6088140;23;114670;-85
2023/01/02 11:58:59;;;;;;;6.40;3.67;;;13.10;57.40;;;;;;6086039;23;114450;-86
2023/01/02 12:01:29;;;;;;;5.72;3.63;;;13.20;57.30;;;;;;6110190;23;116587;-87
2023/01/02 12:03:56;;;;;;;5.00;3.53;;;13.20;57.30;;;;;;6110820;23;114515;-86
2023/01/02 12:06:54;;;;;;;5.75;3.90;;;13.20;57.50;;;;;;6085303;23;116946;-86
2023/01/02 12:09:47;;;;;;;6.07;4.10;;;13.20;57.40;;;;;;6098762;23;114902;-85
2023/01/02 12:12:28;;;;;;;7.45;4.00;;;13.20;57.30;;;;;;6087446;23;116323;-85
2023/01/02 12:15:10;;;;;;;5.85;3.97;;;13.30;57.30;;;;;;6110872;23;117011;-84
2023/01/02 12:17:55;;;;;;;6.03;4.10;;;13.20;57.40;;;;;;6112237;23;114561;-86
2023/01/02 12:20:51;;;;;;;6.30;4.03;;;13.30;57.20;;;;;;6061616;23;115632;-87
2023/01/02 12:24:12;;;;;;;6.63;3.80;;;13.30;57.00;;;;;;6108575;23;115101;-86
2023/01/02 12:27:20;;;;;;;6.22;3.72;;;13.30;57.10;;;;;;6109541;23;114954;-87
2023/01/02 12:29:59;;;;;;;8.07;3.70;;;13.30;57.10;;;;;;6111488;23;115108;-86
2023/01/02 12:33:21;;;;;;;5.47;3.80;;;13.40;57.10;;;;;;6109832;22;115326;-88
2023/01/02 12:36:15;;;;;;;5.80;3.75;;;13.40;57.20;;;;;;6105826;23;115687;-85
2023/01/02 12:39:15;;;;;;;7.20;3.97;;;13.30;57.00;;;;;;6086121;23;115254;-87
2023/01/02 12:41:50;;;;;;;8.18;4.10;;;13.30;57.40;;;;;;6110522;23;114442;-85
2023/01/02 12:45:12;;;;;;;6.25;3.83;;;13.30;57.30;;;;;;6111433;23;114515;-87
2023/01/02 12:48:14;;;;;;;7.13;4.00;;;13.40;57.20;;;;;;5997509;23;115290;-85
2023/01/02 12:51:32;;;;;;;5.43;3.60;;;13.40;57.30;;;;;;6063970;23;118135;-87
2023/01/02 12:54:40;;;;;;;5.85;4.55;;;13.40;57.20;;;;;;6027282;23;114579;-86
2023/01/02 12:57:15;;;;;;;7.57;4.60;;;13.40;57.10;;;;;;6086746;23;115435;-87
2023/01/02 13:00:14;;;;;;;6.13;4.00;;;13.30;57.10;;;;;;6085784;23;117948;-85
2023/01/02 13:03:21;;;;;;;7.63;4.53;;;13.30;57.00;;;;;;6108997;23;114711;-86
2023/01/02 13:06:53;;;;;;;7.43;4.50;;;13.30;57.10;;;;;;6109313;23;115140;-86
2023/01/02 13:09:22;;;;;;;6.18;4.28;;;13.30;57.20;;;;;;6008871;23;114582;-84
2023/01/02 13:12:15;;;;;;;10.65;4.60;;;13.30;57.20;;;;;;6099088;23;115211;-85
2023/01/02 13:14:55;;;;;;;6.32;4.55;;;13.30;57.20;;;;;;6108856;23;114958;-84
2023/01/02 13:17:40;;;;;;;8.35;4.47;;;13.30;57.20;;;;;;6037616;23;114495;-85
2023/01/02 13:20:32;;;;;;;6.88;4.55;;;13.30;57.30;;;;;;6111490;23;114952;-85
2023/01/02 13:23:39;;;;;;;7.93;4.80;;;13.30;57.50;;;;;;6108574;23;115443;-85
2023/01/02 13:26:12;;;;;;;7.70;4.68;;;13.30;57.60;;;;;;6108868;23;117019;-85
2023/01/02 13:28:41;;;;;;;10.25;7.20;;;13.20;58.00;;;;;;6086098;23;114450;-85
2023/01/02 13:31:10;;;;;;;10.93;7.75;;;13.20;58.40;;;;;;6111638;23;114421;-85
2023/01/02 13:33:57;;;;;;;13.13;9.48;;;13.20;58.90;;;;;;6108576;23;115049;-85